Aviation Digital Data Service (ADDS)

Output produced by METARs form (2110 UTC 16 February 2019)
found at http://www.aviationweather.gov/metar/data/
 
Forecast for: AMD
Text: TAF AMD BGMQ 161704Z 1617/1618 08007KT 9999 FEW010 BKN040
Forecast period: 1700 to 1800 UTC 16 February 2019
Forecast type: FROM: standard forecast or significant change
Winds: from the E (80 degrees) at 8 MPH (7 knots; 3.6 m/s)
Visibility: 6 or more miles 10+ km)
Ceiling: 4000 feet AGL
Clouds: few clouds at 1000 feet AGL
broken clouds at 4000 feet AGL
Weather: no significant weather forecast for this period
Text: TEMPO 1617/1618 BKN020
Forecast period: 1700 to 1800 UTC 16 February 2019
Forecast type: TEMPORARY: The following changes expected for less than half the time period
Visibility: missing
Ceiling: 2000 feet AGL
Clouds: broken clouds at 2000 feet AGL
Weather: no significant weather forecast for this period